Etusivu
METAR-TAF:

METAR-TAF

Lentoasemat :

Spaa

Tomaszów Mazowiecki, Puola

Leveyspiiri: 51-35-04N, Pituuspiiri: 020-05-52E, korkeus merenpinnasta: 174 m

METAR: puuttuu

Aika: 15:10 (13:10 UTC)

Sääennuste

Tämä raportti tehtiin 8 tuntia ja 10 minuuttia sitten, kello 05.00 UTC
Ennuste voimassa 18. päivästä klo 06 UTC - 18. päivään klo 18 UTC
Tuuli 3 kn eri suunnista
Näkyvyys 10 km tai enemmän
ei pilviä alle 1500 m:ssä eikä cumulonimbus-pilviä
Ajoittain
18. päivästä klo 06 UTC - 18. päivään klo 18 UTC
Hajonneita pilviä 4000 ft:n korkeudessa, Cumulonimbus.
heikkoja vesikuuroja
Todennäköisyys 30% :
Ajoittain
18. päivästä klo 10 UTC - 18. päivään klo 18 UTC
Tuuli 15 kn eri suunnista puuskistuen 30 kn:hen
Näkyvyys: 4000 m
Hajonneita pilviä 3000 ft:n korkeudessa, Cumulonimbus.
ukkosmyrsky, sadetta,

TAF: EPTM 180500Z 1806/1818 VRB03KT CAVOK TEMPO 1806/1818 -SHRA BKN040CB PROB30 TEMPO 1810/1818 VRB15G30KT 4000 TSRA BKN030CB

Säähavainnot ja -ennusteet yli 4000 lentoasemalta (METAR- ja TAF-raportit).

Käytössä olevat sääasemat on merkitty karttaan keltaisilla ja punaisilla pisteillä.

Aseta hiiri pisteen päälle nähdäksesi sääaseman nimen.

Klikkaa sitten nähdäksesi säähavainnot ja -ennusteet.

Kartan vaihtaminen: klikkaa mustalla rastilla varustettuja vihreitä pisteitä, niin voit zoomata sisään; viivalla varustettua vihreää pistettä, niin voit zoomata ulos tai vihreitä nuolia, niin pääset viereisille kartoille.


METAR-TAF: